Terminal Aerodrome Forecast
Issued by NWS

Home | Current Version | Previous Version | Text Only | Print | Product List | Glossary On
Versions: 1 2 3 4 5 6 7 8 9 10 11 12 13 14 15 16 17 18 19
000
FTUS41 KOKX 011900 AAA
TAFSWF
TAF AMD
KSWF 011951Z 0120/0224 17007KT P6SM SCT050 BKN250
      TEMPO 0120/0121 3SM -TSRA BR SCT020CB BKN040
     FM020200 VRB03KT P6SM BKN150
     FM020900 VRB03KT 5SM -SHRA BR SCT050 BKN100
     FM021300 10005KT 5SM -SHRA BKN025 BKN050
     FM022000 08005KT P6SM SCT025 BKN050
      AMD NOT SKED=

USA.gov is the U.S. government's official web portal to all federal, state and local government web resources and services.